Coker Creek, TN (37314)

8:54 PM EST on December 03, 2016 (GMT -0500)
Tellico Plains Downtown | | Change Station
Active Advisory: Wind Advisory

Elev 919 ft 35.36 °N, 84.29 °W | Updated 28 seconds ago

Mostly Cloudy
Mostly Cloudy
40.6 °F
Feels Like 41 °F
N
0.0
Wind Variable Wind from SE
Gusts 0.0 mph

Today
High -- | Low -- °F
--% Chance of Precip.
Yesterday
High -- | Low -- °F
Precip. -- in
Pressure 30.27 in
Visibility 6.0 miles
Clouds Few 4800 ft
Scattered Clouds 6000 ft
Mostly Cloudy 8500 ft
Windchill 41 °F
Dew Point 39 °F
Humidity 93%
Rainfall 0.00 in
Snow Depth Not available.
7:29 AM 5:24 PM
Waxing Crescent, 18% visible
METAR KMMI 040135Z AUTO 00000KT 6SM FEW048 SCT060 BKN085 04/04 A3027 RMK
Pressure 30.27 in
Visibility 6.0 miles
Clouds Few 4800 ft
Scattered Clouds 6000 ft
Mostly Cloudy 8500 ft
Windchill 41 °F
Dew Point 39 °F
Humidity 93%
Rainfall 0.00 in
Snow Depth Not available.
7:29 AM 5:24 PM
Waxing Crescent, 18% visible
METAR KMMI 040135Z AUTO 00000KT 6SM FEW048 SCT060 BKN085 04/04 A3027 RMK

10-Day Weather Forecast

Almanac

Astronomy

Dec. 03, 2016 Rise Set
Actual Time
Civil Twilight
Nautical Twilight
Astronomical Twilight
Moon
Length of Visible Light
Length of Day
Tomorrow will be .
, % of the Moon is Illuminated

Today's Extremes

State Highs State Lows

Community

WunderPhotos

Upload Photos

1,955,560 photos uploaded!

WunderBlog® & News

Nearby

Air Quality

  Air Quality AQ Index Pollutant
Not available.

Snow Depth

Station Depth Elevation

Earthquake Activity

City Distance Mag. Time & Date
Minimum magnitude displayed is 2.5.

Coastal Water Temperatures

Place Temperature

Stations

Nearby Weather Stations

Station Location Temp. Windchill Dew Point Humidity Wind Precip. Elev Updated Type
                   

Watches & Warnings

Wind Advisory
Issued: 3:21 PM EST Dec. 3, 2016 – National Weather Service

... Wind Advisory in effect from 10 am to 10 PM EST Sunday...

The National Weather Service in Morristown has issued a Wind
Advisory... which is in effect from 10 am to 10 PM EST Sunday.

* Timing... 10 am to 10 PM on Sunday.

* Winds... southeast winds of 15 to 30 mph... with gusts up to 50
mph.

* Impacts... these winds could contribute to fire growth and spread
in areas that still have ongoing wildfires. Additionally... they may
down trees or tree limbs... as well as power lines. Loose outdoor
objects should be secured. Motorists should be extra cautious to
cross winds especially when driving in the higher elevations.

Precautionary/preparedness actions...

A Wind Advisory means that winds of 26 to 39 mph and/or gusts of
40 to 57 mph are expected or occurring. Winds this strong can
make driving difficult... especially for high profile vehicles.
Use extra caution.